Time;durP1;ratioP1;P1;durP2;ratioP2;P2;SDS_P1;SDS_P2;PMS_P1;PMS_P2;Temp;Humidity;BMP_temperature;BMP_pressure;BME280_temperature;BME280_humidity;BME280_pressure;Samples;Min_cycle;Max_cycle;Signal;HPM_P1;HPM_P2
2021/10/22 04:31:43;;;;;;;3.50;1.50;;;4.00;99.90;;;;;;5543595;23;20505;-76
2021/10/22 04:34:09;;;;;;;6.63;2.13;;;4.00;99.90;;;;;;4980645;28;20480;-76
2021/10/22 04:36:36;;;;;;;10.43;1.70;;;4.00;99.90;;;;;;4992285;28;20183;-78
2021/10/22 04:41:47;;;;;;;8.37;2.40;;;4.00;99.90;;;;;;4981955;28;20557;-77
2021/10/22 04:44:15;;;;;;;2.23;1.73;;;3.90;99.90;;;;;;4973060;28;20417;-78
2021/10/22 04:46:41;;;;;;;7.47;1.80;;;3.90;99.90;;;;;;4973042;28;20199;-78
2021/10/22 04:49:06;;;;;;;7.20;1.67;;;3.90;99.90;;;;;;4973148;28;20513;-78
2021/10/22 04:51:32;;;;;;;7.30;1.90;;;3.80;99.90;;;;;;4973078;28;20251;-79
2021/10/22 04:53:57;;;;;;;9.80;2.07;;;3.80;99.90;;;;;;4973039;28;20202;-78
2021/10/22 04:56:23;;;;;;;4.87;1.83;;;3.80;99.90;;;;;;4973072;28;20265;-78
2021/10/22 04:58:48;;;;;;;5.70;1.60;;;3.70;99.90;;;;;;4972937;28;20184;-78
2021/10/22 05:01:14;;;;;;;5.73;1.53;;;3.70;99.90;;;;;;4972674;28;20192;-78
2021/10/22 05:03:40;;;;;;;8.73;2.10;;;3.70;99.90;;;;;;4972886;28;20182;-78
2021/10/22 05:06:05;;;;;;;4.33;1.90;;;3.60;99.90;;;;;;4972980;28;20269;-78
2021/10/22 05:08:31;;;;;;;2.60;1.70;;;3.60;99.90;;;;;;4972765;28;20606;-78
2021/10/22 05:10:57;;;;;;;9.33;2.53;;;3.60;99.90;;;;;;4973074;28;20213;-79
2021/10/22 05:13:23;;;;;;;6.70;2.20;;;3.60;99.90;;;;;;4972567;28;20556;-78
2021/10/22 05:15:49;;;;;;;5.33;2.10;;;3.70;99.90;;;;;;4973062;28;20414;-77
2021/10/22 05:18:15;;;;;;;5.50;2.13;;;3.70;99.90;;;;;;4972920;28;20176;-78
2021/10/22 05:20:40;;;;;;;5.77;1.83;;;3.60;99.90;;;;;;4973007;28;20218;-78
2021/10/22 05:23:06;;;;;;;3.73;2.10;;;3.60;99.90;;;;;;4972527;28;20387;-78
2021/10/22 05:25:32;;;;;;;2.57;1.60;;;3.50;99.90;;;;;;4972916;28;20675;-79
2021/10/22 05:27:57;;;;;;;6.63;2.07;;;3.50;99.90;;;;;;4972664;28;20196;-76
2021/10/22 05:30:23;;;;;;;13.77;2.50;;;3.50;99.90;;;;;;4972826;28;20264;-76
2021/10/22 05:32:48;;;;;;;5.10;1.97;;;3.50;99.90;;;;;;4972407;28;20251;-76
2021/10/22 05:35:14;;;;;;;6.00;1.90;;;3.50;99.90;;;;;;4972737;28;20702;-76
2021/10/22 05:37:39;;;;;;;10.10;1.97;;;3.50;99.90;;;;;;4972661;28;20182;-76
2021/10/22 05:40:06;;;;;;;7.30;2.50;;;3.50;99.90;;;;;;4972630;28;20265;-76
2021/10/22 05:42:32;;;;;;;9.03;2.97;;;3.50;99.90;;;;;;4972840;28;20674;-76
2021/10/22 05:44:58;;;;;;;4.97;1.70;;;3.50;99.90;;;;;;4972707;28;20445;-76
2021/10/22 05:47:24;;;;;;;8.87;1.83;;;3.50;99.90;;;;;;4972550;28;20778;-76
2021/10/22 05:49:50;;;;;;;11.33;2.47;;;3.40;99.90;;;;;;4972654;28;20596;-77
2021/10/22 05:52:16;;;;;;;8.10;2.67;;;3.40;99.90;;;;;;4975593;28;20199;-76
2021/10/22 05:54:43;;;;;;;12.83;3.17;;;3.40;99.90;;;;;;4976374;28;20213;-76
2021/10/22 05:57:08;;;;;;;10.03;2.33;;;3.30;99.90;;;;;;4976126;28;20391;-76
2021/10/22 05:59:33;;;;;;;6.77;2.13;;;3.40;99.90;;;;;;4976443;28;20554;-76
2021/10/22 06:01:59;;;;;;;4.50;2.03;;;3.40;99.90;;;;;;4976302;28;20198;-74
2021/10/22 06:04:25;;;;;;;8.10;1.90;;;3.40;99.90;;;;;;4976181;28;20191;-75
2021/10/22 06:06:51;;;;;;;3.47;2.10;;;3.40;99.90;;;;;;4976139;28;20276;-72
2021/10/22 06:09:16;;;;;;;8.83;2.40;;;3.40;99.90;;;;;;4976066;28;20185;-74
2021/10/22 06:11:42;;;;;;;6.67;1.90;;;3.40;99.90;;;;;;4976077;28;20214;-72
2021/10/22 06:14:07;;;;;;;10.70;2.30;;;3.40;99.90;;;;;;4975898;28;20209;-72
2021/10/22 06:16:34;;;;;;;9.73;3.07;;;3.40;99.90;;;;;;4976262;28;20178;-72
2021/10/22 06:19:02;;;;;;;10.37;2.10;;;3.50;99.90;;;;;;4976961;28;20206;-75
2021/10/22 06:21:32;;;;;;;7.03;2.03;;;3.50;99.90;;;;;;4976022;28;20829;-75
2021/10/22 06:24:02;;;;;;;6.43;2.40;;;3.50;99.90;;;;;;4976241;28;20425;-74
2021/10/22 06:26:32;;;;;;;3.60;1.70;;;3.60;99.90;;;;;;4976346;28;20435;-75
2021/10/22 06:28:59;;;;;;;4.00;2.07;;;3.60;99.90;;;;;;4975953;28;20423;-75
2021/10/22 06:31:25;;;;;;;7.53;2.20;;;3.70;99.90;;;;;;4975828;28;20472;-75
2021/10/22 06:33:51;;;;;;;6.33;2.17;;;3.70;99.90;;;;;;4975913;28;20492;-75
2021/10/22 06:36:17;;;;;;;6.20;1.90;;;3.80;99.90;;;;;;4975608;28;20418;-75
2021/10/22 06:38:42;;;;;;;4.10;2.17;;;3.80;99.90;;;;;;4975848;28;20232;-75
2021/10/22 06:41:08;;;;;;;7.70;2.33;;;3.90;99.90;;;;;;4976707;28;20200;-75
2021/10/22 06:43:35;;;;;;;5.00;1.80;;;4.00;99.90;;;;;;4975830;28;20209;-75
2021/10/22 06:46:00;;;;;;;5.70;1.47;;;4.00;99.90;;;;;;4975808;28;20403;-75
2021/10/22 06:48:26;;;;;;;3.43;2.00;;;4.10;99.90;;;;;;4975308;28;20430;-75
2021/10/22 06:50:52;;;;;;;5.80;2.23;;;4.20;99.90;;;;;;4975561;28;20210;-74
2021/10/22 06:53:18;;;;;;;12.60;2.30;;;4.30;99.90;;;;;;4975154;28;20186;-74
2021/10/22 06:55:43;;;;;;;5.80;1.90;;;4.50;99.90;;;;;;4975559;28;20168;-74
2021/10/22 06:58:09;;;;;;;8.03;2.10;;;4.60;99.90;;;;;;4975085;28;20565;-75
2021/10/22 07:00:36;;;;;;;5.40;2.20;;;5.20;99.90;;;;;;4975421;28;20180;-75
2021/10/22 07:03:02;;;;;;;5.90;2.50;;;6.60;99.90;;;;;;4974350;28;20689;-73
2021/10/22 07:07:58;;;;;;;6.60;3.00;;;9.70;99.90;;;;;;4975048;28;20419;-73
2021/10/22 07:10:24;;;;;;;7.93;2.80;;;11.00;99.90;;;;;;4975121;28;20431;-74
2021/10/22 07:12:49;;;;;;;8.50;2.47;;;12.20;99.90;;;;;;4975152;28;20926;-73
2021/10/22 07:15:16;;;;;;;7.00;2.40;;;13.20;99.90;;;;;;4975024;28;20215;-74
2021/10/22 07:17:44;;;;;;;4.47;2.00;;;13.50;99.90;;;;;;4961684;28;20199;-77
2021/10/22 07:20:11;;;;;;;6.07;2.30;;;13.80;99.90;;;;;;4954621;28;20412;-71
2021/10/22 07:25:40;;;;;;;5.73;1.47;;;14.80;99.90;;;;;;4945877;28;20925;-74
2021/10/22 07:28:10;;;;;;;11.03;3.60;;;15.20;99.90;;;;;;4974141;28;20482;-74
2021/10/22 07:30:38;;;;;;;5.33;1.63;;;15.60;99.90;;;;;;4966644;28;20438;-74
2021/10/22 07:33:04;;;;;;;9.30;2.43;;;15.70;99.90;;;;;;4967754;28;20547;-74
2021/10/22 07:35:30;;;;;;;6.13;2.73;;;16.00;99.90;;;;;;4962769;28;20558;-74
2021/10/22 07:37:56;;;;;;;5.90;1.90;;;16.10;99.90;;;;;;4967761;28;20242;-73
2021/10/22 07:40:22;;;;;;;4.77;2.63;;;16.20;99.90;;;;;;4966401;28;20451;-74
2021/10/22 07:42:47;;;;;;;8.50;2.30;;;15.80;99.90;;;;;;4973868;28;20208;-74
2021/10/22 07:45:13;;;;;;;10.20;2.37;;;15.30;99.90;;;;;;4974006;28;20192;-73
2021/10/22 07:47:38;;;;;;;12.20;2.20;;;14.70;99.90;;;;;;4955949;28;20185;-74
2021/10/22 07:50:07;;;;;;;8.63;1.90;;;14.40;99.90;;;;;;4960666;28;20215;-73
2021/10/22 07:52:33;;;;;;;12.67;1.97;;;14.00;99.90;;;;;;4973638;28;20208;-74
2021/10/22 07:54:59;;;;;;;9.90;2.13;;;13.70;99.90;;;;;;4973458;28;20522;-74
2021/10/22 07:57:28;;;;;;;11.93;2.60;;;13.60;99.90;;;;;;4973471;28;20423;-74
2021/10/22 07:59:55;;;;;;;5.97;1.50;;;13.30;99.90;;;;;;4974026;28;20231;-74
2021/10/22 08:02:21;;;;;;;11.53;2.33;;;13.20;99.90;;;;;;4968454;28;20819;-74
2021/10/22 08:04:49;;;;;;;7.33;1.77;;;13.10;99.90;;;;;;4971750;28;20997;-70
2021/10/22 08:07:16;;;;;;;14.43;2.67;;;13.10;99.90;;;;;;4958249;28;20491;-74
2021/10/22 08:09:43;;;;;;;9.30;2.20;;;13.20;99.90;;;;;;4953691;28;20432;-74
2021/10/22 08:12:10;;;;;;;12.47;2.60;;;13.00;99.90;;;;;;4961564;28;20447;-72
2021/10/22 08:14:36;;;;;;;4.80;1.40;;;13.10;99.90;;;;;;4973517;28;20506;-74
2021/10/22 08:17:02;;;;;;;10.17;1.63;;;13.30;99.90;;;;;;4961637;28;20494;-76
2021/10/22 08:19:28;;;;;;;17.93;3.40;;;13.10;99.90;;;;;;4962319;28;20498;-72
2021/10/22 08:24:22;;;;;;;10.97;2.10;;;13.30;99.90;;;;;;4973351;28;20188;-71
2021/10/22 08:26:47;;;;;;;10.23;1.43;;;13.10;99.90;;;;;;4970819;28;20912;-72
2021/10/22 08:29:13;;;;;;;3.67;1.73;;;13.20;99.90;;;;;;4967022;28;20197;-71
2021/10/22 08:31:39;;;;;;;8.10;2.07;;;13.20;99.90;;;;;;4967849;28;20599;-71
2021/10/22 08:34:05;;;;;;;12.70;2.33;;;13.10;99.90;;;;;;4970723;28;20226;-71
2021/10/22 08:36:30;;;;;;;15.40;2.00;;;13.20;99.90;;;;;;4968770;28;20427;-72
2021/10/22 08:38:56;;;;;;;9.20;2.80;;;13.10;99.90;;;;;;4957788;28;20201;-72
2021/10/22 08:41:23;;;;;;;9.10;1.73;;;13.10;99.90;;;;;;4961701;28;20573;-73
2021/10/22 08:43:52;;;;;;;6.63;1.87;;;13.20;99.90;;;;;;4972167;28;20226;-72
2021/10/22 08:46:21;;;;;;;8.23;2.00;;;13.30;99.90;;;;;;4964671;28;20454;-73
2021/10/22 08:48:46;;;;;;;6.30;1.40;;;13.30;99.90;;;;;;4971861;28;20439;-73
2021/10/22 08:51:18;;;;;;;6.97;1.93;;;13.10;99.90;;;;;;4972669;28;20442;-72
2021/10/22 08:53:44;;;;;;;8.77;1.87;;;13.10;99.90;;;;;;4973246;28;20200;-74
2021/10/22 08:56:10;;;;;;;12.23;2.60;;;13.20;99.90;;;;;;4972973;28;20470;-75
2021/10/22 08:58:35;;;;;;;11.30;1.70;;;13.50;99.90;;;;;;4971896;28;20438;-73
2021/10/22 09:01:01;;;;;;;12.00;1.80;;;13.70;99.90;;;;;;4972740;28;20228;-72
2021/10/22 09:03:39;;;;;;;6.97;1.37;;;13.70;99.90;;;;;;4973144;28;20184;-73
2021/10/22 09:06:12;;;;;;;6.50;1.47;;;13.70;99.90;;;;;;4973221;28;20261;-73
2021/10/22 09:08:40;;;;;;;5.43;1.63;;;13.60;99.90;;;;;;4973379;28;21025;-72
2021/10/22 09:11:23;;;;;;;14.83;2.20;;;13.70;99.90;;;;;;4972304;28;20956;-73
2021/10/22 09:14:07;;;;;;;8.33;1.67;;;14.00;99.90;;;;;;4973178;28;20517;-73
2021/10/22 09:16:40;;;;;;;6.67;1.40;;;14.20;99.90;;;;;;4971834;28;21010;-73
2021/10/22 09:19:06;;;;;;;5.13;1.40;;;14.10;99.90;;;;;;4972916;28;20510;-73
2021/10/22 09:21:32;;;;;;;9.93;1.77;;;14.30;99.90;;;;;;4972791;28;20514;-73
2021/10/22 09:24:15;;;;;;;3.83;1.40;;;14.20;99.90;;;;;;4973073;28;20180;-72
2021/10/22 09:26:51;;;;;;;6.73;2.03;;;14.60;99.90;;;;;;4972508;28;20913;-73
2021/10/22 09:29:18;;;;;;;7.83;1.67;;;14.60;99.90;;;;;;4972764;28;20411;-73
2021/10/22 09:31:46;;;;;;;4.10;1.37;;;14.70;99.90;;;;;;4972265;28;20552;-73
2021/10/22 09:34:11;;;;;;;7.33;1.50;;;14.50;99.90;;;;;;4972777;28;20972;-72
2021/10/22 09:36:40;;;;;;;5.27;1.70;;;14.70;99.90;;;;;;4972659;28;20430;-73
2021/10/22 09:39:21;;;;;;;7.57;1.50;;;14.80;99.90;;;;;;4971998;28;20254;-73
2021/10/22 09:41:49;;;;;;;9.20;1.40;;;14.70;99.90;;;;;;4971598;28;20443;-71
2021/10/22 09:44:23;;;;;;;6.53;1.87;;;14.60;99.90;;;;;;4972378;28;20963;-73
2021/10/22 09:47:09;;;;;;;7.60;1.30;;;14.60;99.90;;;;;;4972717;28;20780;-72
2021/10/22 09:49:40;;;;;;;2.60;1.03;;;14.30;99.90;;;;;;4972400;28;20478;-72
2021/10/22 09:52:23;;;;;;;6.40;0.90;;;14.40;99.90;;;;;;4972091;28;20471;-75
2021/10/22 09:55:03;;;;;;;5.53;1.10;;;14.30;99.90;;;;;;4972464;28;20467;-73
2021/10/22 09:57:28;;;;;;;5.27;1.20;;;14.20;99.90;;;;;;4972448;28;20917;-73
2021/10/22 10:00:06;;;;;;;5.50;1.47;;;14.20;99.90;;;;;;4972304;28;20422;-72
2021/10/22 10:02:33;;;;;;;7.63;1.40;;;14.10;99.90;;;;;;4972397;28;20191;-72
2021/10/22 10:04:59;;;;;;;6.43;1.40;;;14.60;99.90;;;;;;4972422;28;20925;-73
2021/10/22 10:07:26;;;;;;;11.70;1.70;;;14.90;99.90;;;;;;4972246;28;20516;-72
2021/10/22 10:09:54;;;;;;;5.20;0.90;;;14.70;99.90;;;;;;4972405;28;20896;-73
2021/10/22 10:12:20;;;;;;;7.50;1.93;;;15.10;99.90;;;;;;4972033;28;20466;-72
2021/10/22 10:14:46;;;;;;;3.63;0.80;;;15.30;99.90;;;;;;4972335;28;20463;-73
2021/10/22 10:17:13;;;;;;;4.83;1.27;;;15.30;99.90;;;;;;4970969;28;20411;-73
2021/10/22 10:19:44;;;;;;;7.70;1.10;;;14.80;99.90;;;;;;4972481;28;20917;-72
2021/10/22 10:22:16;;;;;;;4.83;1.23;;;14.60;99.90;;;;;;4971818;28;20446;-73
2021/10/22 10:24:47;;;;;;;4.07;1.40;;;14.90;99.90;;;;;;4972328;28;20423;-72
2021/10/22 10:27:24;;;;;;;4.97;1.40;;;14.70;99.90;;;;;;4972344;28;20424;-72
2021/10/22 10:29:51;;;;;;;5.27;1.13;;;14.50;99.90;;;;;;4971976;28;20450;-70
2021/10/22 10:32:20;;;;;;;4.00;0.87;;;14.60;99.90;;;;;;4971107;28;20463;-69
2021/10/22 10:34:47;;;;;;;5.77;1.57;;;14.50;99.90;;;;;;4971931;28;20466;-73
2021/10/22 10:37:40;;;;;;;0.90;0.80;;;14.50;99.90;;;;;;4971424;28;20458;-72
2021/10/22 10:40:21;;;;;;;7.87;1.30;;;14.70;99.90;;;;;;4975614;28;20411;-73
2021/10/22 10:42:47;;;;;;;8.57;1.03;;;14.80;99.90;;;;;;4978963;28;20557;-71
2021/10/22 10:45:25;;;;;;;6.20;1.10;;;14.70;99.90;;;;;;4976037;28;20416;-73
2021/10/22 10:47:53;;;;;;;3.83;1.27;;;14.70;99.90;;;;;;4975115;28;20474;-73
2021/10/22 10:50:39;;;;;;;7.63;1.00;;;14.80;99.90;;;;;;4975229;28;20431;-72
2021/10/22 10:53:06;;;;;;;4.17;1.10;;;14.90;99.90;;;;;;4975813;28;20988;-73
2021/10/22 10:55:43;;;;;;;5.20;1.43;;;15.00;99.90;;;;;;4975820;28;20537;-73
2021/10/22 10:58:08;;;;;;;7.47;1.40;;;14.60;99.90;;;;;;4975848;28;20415;-74
2021/10/22 11:00:36;;;;;;;6.87;1.40;;;14.50;99.90;;;;;;4975077;28;20989;-73
2021/10/22 11:03:05;;;;;;;2.63;1.60;;;14.40;99.90;;;;;;4975183;28;20194;-73
2021/10/22 11:05:43;;;;;;;2.90;0.90;;;14.30;99.90;;;;;;4974899;28;20799;-72
2021/10/22 11:08:18;;;;;;;4.37;1.13;;;14.60;99.90;;;;;;4974953;28;20433;-73
2021/10/22 11:11:15;;;;;;;3.10;1.07;;;14.70;99.90;;;;;;4975018;28;20419;-73
2021/10/22 11:13:49;;;;;;;5.97;1.40;;;14.60;99.90;;;;;;4974944;28;20463;-73
2021/10/22 11:16:21;;;;;;;2.13;1.07;;;14.40;99.90;;;;;;4975106;28;20498;-73
2021/10/22 11:19:17;;;;;;;2.90;0.70;;;14.30;99.90;;;;;;4974996;28;20415;-73
2021/10/22 11:21:47;;;;;;;2.73;1.20;;;14.10;99.90;;;;;;4974776;28;20435;-73
2021/10/22 11:24:20;;;;;;;3.83;1.00;;;14.00;99.90;;;;;;4974332;28;20512;-73
2021/10/22 11:26:53;;;;;;;3.87;0.73;;;14.00;99.90;;;;;;4975087;28;20826;-73
2021/10/22 11:29:22;;;;;;;2.80;0.80;;;14.00;99.90;;;;;;4975809;28;20828;-73
2021/10/22 11:32:04;;;;;;;6.23;1.23;;;14.20;99.90;;;;;;4975175;28;20877;-73
2021/10/22 11:34:32;;;;;;;3.77;1.30;;;14.40;99.90;;;;;;4974696;28;20898;-74
2021/10/22 11:37:03;;;;;;;1.70;0.70;;;14.40;99.90;;;;;;4974806;28;20418;-74
2021/10/22 11:39:52;;;;;;;3.90;1.03;;;14.50;99.90;;;;;;4974989;28;20448;-74
2021/10/22 11:42:18;;;;;;;2.67;0.93;;;14.50;99.90;;;;;;4974362;28;20434;-74
2021/10/22 11:45:05;;;;;;;4.07;0.87;;;14.50;99.90;;;;;;4974422;28;20407;-74
2021/10/22 11:47:39;;;;;;;5.53;1.10;;;14.40;99.90;;;;;;4974680;28;20180;-73
2021/10/22 11:50:21;;;;;;;3.53;0.83;;;14.30;99.90;;;;;;4974334;28;20415;-75
2021/10/22 11:52:49;;;;;;;6.17;0.83;;;14.30;99.90;;;;;;4974606;28;20526;-73
2021/10/22 11:55:22;;;;;;;2.07;0.87;;;14.10;99.90;;;;;;4972850;28;20486;-74
2021/10/22 11:57:49;;;;;;;2.30;1.03;;;13.90;99.90;;;;;;4973045;28;20506;-73
2021/10/22 12:00:16;;;;;;;1.10;0.80;;;13.70;99.90;;;;;;4974215;28;20412;-73
2021/10/22 12:02:42;;;;;;;2.37;1.17;;;13.60;99.90;;;;;;4974163;28;20440;-73
2021/10/22 12:05:09;;;;;;;3.60;1.17;;;13.40;99.90;;;;;;4973892;28;20444;-73
2021/10/22 12:07:39;;;;;;;6.10;0.87;;;13.40;99.90;;;;;;4974315;28;20427;-73
2021/10/22 12:10:07;;;;;;;4.83;1.20;;;13.30;99.90;;;;;;4974117;28;20424;-74
2021/10/22 12:12:45;;;;;;;1.47;1.00;;;13.30;99.90;;;;;;4973897;28;20441;-73
2021/10/22 12:15:15;;;;;;;3.00;1.23;;;13.20;99.90;;;;;;4974026;28;20494;-76
2021/10/22 12:17:42;;;;;;;3.47;0.90;;;13.30;99.90;;;;;;4974011;28;20421;-75
2021/10/22 12:20:09;;;;;;;8.30;1.50;;;13.20;99.90;;;;;;4973839;28;20415;-76
2021/10/22 12:22:44;;;;;;;3.80;0.87;;;13.20;99.90;;;;;;4973285;28;20520;-76
2021/10/22 12:25:16;;;;;;;2.33;0.70;;;13.10;99.90;;;;;;4973817;28;20834;-76
2021/10/22 12:27:56;;;;;;;0.93;0.70;;;13.00;99.90;;;;;;4973840;28;20499;-76
2021/10/22 12:30:30;;;;;;;1.80;0.87;;;12.90;99.90;;;;;;4972473;28;20548;-75
2021/10/22 12:33:16;;;;;;;3.43;0.93;;;12.80;99.90;;;;;;4973816;28;20850;-75
2021/10/22 12:35:46;;;;;;;4.77;1.00;;;12.60;99.90;;;;;;4973612;28;20471;-73
2021/10/22 12:38:18;;;;;;;3.83;1.00;;;12.60;99.90;;;;;;4973652;28;20412;-73
2021/10/22 12:40:46;;;;;;;3.63;1.10;;;12.60;99.90;;;;;;4973525;28;20420;-75
2021/10/22 12:43:17;;;;;;;4.10;1.13;;;12.80;99.90;;;;;;4973393;28;20924;-74
2021/10/22 12:45:57;;;;;;;3.07;0.90;;;12.80;99.90;;;;;;4972297;28;20415;-74
2021/10/22 12:48:25;;;;;;;3.30;0.87;;;12.90;99.90;;;;;;4956031;28;20431;-74
2021/10/22 12:50:51;;;;;;;4.90;1.20;;;12.90;99.90;;;;;;4973202;28;20522;-74
2021/10/22 12:53:27;;;;;;;7.03;1.20;;;12.80;99.90;;;;;;4973576;28;20465;-74
2021/10/22 12:56:02;;;;;;;2.40;1.47;;;12.60;99.90;;;;;;4973852;28;20415;-74
2021/10/22 12:58:28;;;;;;;8.20;1.00;;;12.50;99.90;;;;;;4981299;28;20403;-74
2021/10/22 13:01:13;;;;;;;6.77;1.43;;;12.40;99.90;;;;;;4970986;28;20817;-74
2021/10/22 13:03:47;;;;;;;5.20;1.10;;;12.40;99.90;;;;;;4973353;28;20535;-74
2021/10/22 13:06:29;;;;;;;5.50;1.20;;;12.40;99.90;;;;;;4973136;28;20466;-74
2021/10/22 13:11:45;;;;;;;4.10;0.83;;;12.30;99.90;;;;;;4972917;28;20431;-74
2021/10/22 13:22:23;;;;;;;5.27;1.23;;;12.40;99.90;;;;;;4968866;28;20510;-74
2021/10/22 13:24:53;;;;;;;4.43;1.03;;;12.30;99.90;;;;;;4961147;28;20835;-74
2021/10/22 13:27:20;;;;;;;4.13;0.90;;;12.20;99.90;;;;;;4953754;28;20930;-76
2021/10/22 13:29:48;;;;;;;1.90;1.03;;;12.20;99.90;;;;;;4953703;28;20421;-75
2021/10/22 13:32:14;;;;;;;5.30;1.60;;;12.30;99.90;;;;;;4952941;28;20488;-76
2021/10/22 13:34:39;;;;;;;4.03;1.90;;;12.40;99.90;;;;;;4953418;29;20503;-77
2021/10/22 13:37:05;;;;;;;10.87;1.27;;;12.30;99.90;;;;;;4953669;29;20247;-76
2021/10/22 13:39:30;;;;;;;6.17;1.37;;;12.30;99.90;;;;;;4953410;29;20177;-76
2021/10/22 13:41:56;;;;;;;6.90;1.53;;;12.30;99.90;;;;;;4953370;29;20223;-77
2021/10/22 13:44:22;;;;;;;4.20;1.20;;;12.20;99.90;;;;;;4951931;29;20280;-74
2021/10/22 13:46:49;;;;;;;7.27;0.90;;;12.20;99.90;;;;;;4955024;29;20169;-78
2021/10/22 13:49:14;;;;;;;4.00;1.00;;;12.10;99.90;;;;;;4954898;28;20172;-77
2021/10/22 13:51:40;;;;;;;5.60;1.30;;;12.00;99.90;;;;;;4953571;28;20874;-76
2021/10/22 13:54:06;;;;;;;4.17;1.33;;;12.00;99.90;;;;;;4953387;29;20211;-77
2021/10/22 13:56:31;;;;;;;5.60;1.53;;;11.90;99.90;;;;;;4953616;28;20173;-76
2021/10/22 13:58:57;;;;;;;5.77;1.60;;;11.90;99.90;;;;;;4953333;29;20180;-76
2021/10/22 14:01:23;;;;;;;3.13;0.90;;;11.90;99.90;;;;;;4951820;29;20693;-76
2021/10/22 14:03:48;;;;;;;4.73;1.10;;;11.80;99.90;;;;;;4952085;29;20184;-77
2021/10/22 14:06:14;;;;;;;2.17;0.87;;;11.70;99.90;;;;;;4953760;29;20180;-76
2021/10/22 14:08:39;;;;;;;5.50;0.80;;;11.70;99.90;;;;;;4953129;29;20213;-77
2021/10/22 14:11:08;;;;;;;2.97;0.87;;;11.60;99.90;;;;;;4952311;29;20209;-76
2021/10/22 14:16:36;;;;;;;7.87;0.80;;;11.40;99.90;;;;;;4926984;28;20430;-77
2021/10/22 14:19:21;;;;;;;6.03;2.63;;;11.30;99.90;;;;;;4957028;28;20417;-77
2021/10/22 14:29:59;;;;;;;5.00;1.00;;;11.40;99.90;;;;;;4956649;28;20486;-78
2021/10/22 14:32:27;;;;;;;1.57;1.07;;;11.40;99.90;;;;;;4956241;29;20463;-75
2021/10/22 14:34:58;;;;;;;4.00;1.00;;;11.40;99.90;;;;;;4956888;28;20203;-76
2021/10/22 14:37:26;;;;;;;5.30;0.80;;;11.30;99.90;;;;;;4956696;28;20451;-73
2021/10/22 14:39:51;;;;;;;5.13;1.17;;;11.20;99.90;;;;;;4956640;28;20416;-75
2021/10/22 14:42:17;;;;;;;1.43;1.10;;;11.10;99.90;;;;;;4963246;28;20445;-75
2021/10/22 14:44:43;;;;;;;7.93;1.50;;;11.10;99.90;;;;;;4975884;28;20183;-75
2021/10/22 14:49:38;;;;;;;3.77;1.00;;;11.10;99.90;;;;;;4975594;28;20416;-74
2021/10/22 14:52:15;;;;;;;5.73;1.07;;;11.00;99.90;;;;;;4975570;28;20213;-75
2021/10/22 14:54:45;;;;;;;3.83;0.90;;;11.00;99.90;;;;;;4974483;28;20494;-75
2021/10/22 14:57:10;;;;;;;3.00;1.23;;;11.00;99.90;;;;;;4975528;28;20466;-75
2021/10/22 14:59:36;;;;;;;2.57;0.60;;;11.00;99.90;;;;;;4975387;28;20407;-76
2021/10/22 15:02:06;;;;;;;2.33;1.17;;;11.00;99.90;;;;;;4975012;28;20238;-76
2021/10/22 15:04:32;;;;;;;3.97;1.00;;;11.00;99.90;;;;;;4975686;28;20183;-74
2021/10/22 15:06:58;;;;;;;10.43;2.13;;;10.90;99.90;;;;;;4975648;28;20485;-75
2021/10/22 15:09:23;;;;;;;4.47;1.10;;;10.80;99.90;;;;;;4975146;28;20446;-74
2021/10/22 15:11:49;;;;;;;3.13;0.90;;;10.80;99.90;;;;;;4975109;28;20199;-75
2021/10/22 15:14:14;;;;;;;3.33;0.60;;;10.80;99.90;;;;;;4975133;28;20199;-75
2021/10/22 15:16:40;;;;;;;6.07;1.77;;;10.80;99.90;;;;;;4975721;28;20175;-75
2021/10/22 15:19:06;;;;;;;3.43;1.00;;;10.80;99.90;;;;;;4987886;28;20172;-76
2021/10/22 15:21:31;;;;;;;5.90;1.40;;;10.60;99.90;;;;;;4980438;28;20719;-76
2021/10/22 15:23:57;;;;;;;4.43;1.43;;;10.50;99.90;;;;;;4974174;28;20190;-75
2021/10/22 15:26:23;;;;;;;10.30;3.20;;;10.50;99.90;;;;;;4975333;28;20277;-74
2021/10/22 15:28:48;;;;;;;1.93;1.40;;;10.40;99.90;;;;;;4973707;28;20189;-75
2021/10/22 15:31:14;;;;;;;5.40;2.23;;;10.30;99.90;;;;;;4974491;28;20688;-75
2021/10/22 15:33:39;;;;;;;7.50;2.20;;;10.20;99.90;;;;;;4973650;28;20200;-75
2021/10/22 15:36:05;;;;;;;3.17;2.07;;;10.10;99.90;;;;;;4962268;28;20190;-75
2021/10/22 15:38:32;;;;;;;5.33;1.37;;;10.00;99.90;;;;;;4965024;28;20186;-75
2021/10/22 15:40:57;;;;;;;5.53;2.40;;;10.00;99.90;;;;;;4955480;28;20263;-75
2021/10/22 15:43:24;;;;;;;13.20;2.27;;;9.90;99.90;;;;;;4955448;28;20426;-75
2021/10/22 15:45:49;;;;;;;8.03;1.87;;;9.80;99.90;;;;;;4955651;28;20189;-76
2021/10/22 15:48:15;;;;;;;4.40;3.10;;;9.80;99.90;;;;;;4963720;28;20421;-77
2021/10/22 15:50:43;;;;;;;5.20;1.70;;;9.70;99.90;;;;;;4968247;28;20189;-75
2021/10/22 15:53:08;;;;;;;5.47;1.50;;;9.60;99.90;;;;;;4955103;28;20197;-75
2021/10/22 15:55:34;;;;;;;8.20;2.97;;;9.60;99.90;;;;;;4955131;28;20903;-75
2021/10/22 15:58:00;;;;;;;9.70;3.73;;;9.60;99.90;;;;;;4968090;28;20179;-76
2021/10/22 16:00:28;;;;;;;9.30;3.70;;;9.50;99.90;;;;;;4970440;28;20518;-75
2021/10/22 16:02:54;;;;;;;11.67;2.90;;;9.40;99.90;;;;;;4955108;28;20199;-76
2021/10/22 16:05:19;;;;;;;7.37;3.17;;;9.40;99.90;;;;;;4962402;28;20489;-76
2021/10/22 16:07:55;;;;;;;7.23;3.40;;;9.40;99.90;;;;;;4973830;28;20186;-76
2021/10/22 16:10:37;;;;;;;6.47;3.00;;;9.40;99.90;;;;;;4956159;28;20181;-76
2021/10/22 16:13:05;;;;;;;11.07;3.13;;;9.30;99.90;;;;;;4968397;28;20781;-76
2021/10/22 16:15:52;;;;;;;3.60;2.17;;;9.20;99.90;;;;;;4962815;28;20475;-76
2021/10/22 16:18:18;;;;;;;4.40;1.73;;;9.30;99.90;;;;;;4954634;28;20497;-76
2021/10/22 16:20:43;;;;;;;4.83;2.33;;;9.20;99.90;;;;;;4968475;28;20510;-76
2021/10/22 16:23:09;;;;;;;4.60;2.00;;;9.20;99.90;;;;;;4962580;28;20192;-76
2021/10/22 16:25:34;;;;;;;3.80;1.87;;;9.10;99.90;;;;;;4971791;28;20703;-76
2021/10/22 16:28:00;;;;;;;10.10;3.33;;;9.10;99.90;;;;;;4958382;28;20192;-76
2021/10/22 16:30:25;;;;;;;7.30;2.10;;;9.00;99.90;;;;;;4973288;28;20601;-75
2021/10/22 16:33:09;;;;;;;7.00;1.77;;;9.00;99.90;;;;;;4963192;23;20261;-76
2021/10/22 16:35:44;;;;;;;5.17;2.27;;;8.90;99.90;;;;;;4955186;28;20680;-77
2021/10/22 16:38:13;;;;;;;3.97;1.73;;;8.90;99.90;;;;;;4955542;29;20482;-78
2021/10/22 16:40:42;;;;;;;6.50;1.90;;;8.80;99.90;;;;;;4954516;28;20450;-78
2021/10/22 16:43:09;;;;;;;3.73;1.67;;;8.80;99.90;;;;;;4947202;29;20506;-78
2021/10/22 16:45:35;;;;;;;5.37;2.47;;;8.70;99.90;;;;;;4948503;29;20427;-78
2021/10/22 16:48:01;;;;;;;4.37;2.10;;;8.60;99.90;;;;;;4948515;29;20507;-78
2021/10/22 16:50:27;;;;;;;6.13;2.43;;;8.60;99.90;;;;;;4946872;28;20576;-78
2021/10/22 16:52:53;;;;;;;5.73;2.53;;;8.60;99.90;;;;;;4948784;29;20282;-78
2021/10/22 16:55:22;;;;;;;6.77;2.70;;;8.50;99.90;;;;;;4943691;28;20466;-78
2021/10/22 16:57:49;;;;;;;5.40;1.73;;;8.40;99.90;;;;;;4933902;29;20490;-78
2021/10/22 17:00:15;;;;;;;6.40;1.70;;;8.30;99.90;;;;;;4935002;29;20417;-78
2021/10/22 17:02:41;;;;;;;3.30;2.00;;;8.20;99.90;;;;;;4935200;29;20417;-78
2021/10/22 17:05:07;;;;;;;5.83;2.23;;;8.20;99.90;;;;;;4935300;29;20509;-78
2021/10/22 17:07:36;;;;;;;9.57;2.80;;;8.10;99.90;;;;;;4934929;29;20461;-78
2021/10/22 17:10:03;;;;;;;5.73;2.03;;;8.10;99.90;;;;;;4942655;28;20470;-78
2021/10/22 17:13:06;;;;;;;6.30;2.27;;;8.00;99.90;;;;;;5729894;23;20550;-73
2021/10/22 17:15:32;;;;;;;7.57;1.73;;;7.90;99.90;;;;;;4926637;29;20487;-74
2021/10/22 17:17:57;;;;;;;27.30;14.63;;;7.90;99.90;;;;;;4951833;28;20494;-75
2021/10/22 17:20:23;;;;;;;6.20;2.10;;;7.80;99.90;;;;;;4950955;29;20229;-72
2021/10/22 17:22:48;;;;;;;3.50;1.63;;;7.80;99.90;;;;;;4949935;28;20587;-74
2021/10/22 17:25:15;;;;;;;7.50;1.70;;;7.80;99.90;;;;;;4947299;28;20624;-77
2021/10/22 17:27:40;;;;;;;8.93;2.00;;;7.80;99.90;;;;;;4951051;28;20248;-75
2021/10/22 17:30:06;;;;;;;4.30;1.63;;;7.90;99.90;;;;;;4936725;29;21001;-76
2021/10/22 17:32:35;;;;;;;2.83;1.90;;;7.90;99.90;;;;;;4940367;28;20218;-76
2021/10/22 17:35:00;;;;;;;5.60;1.30;;;7.90;99.90;;;;;;4952523;28;20507;-75
2021/10/22 17:37:26;;;;;;;3.50;1.47;;;7.90;99.90;;;;;;4952585;28;20555;-76
2021/10/22 17:39:51;;;;;;;4.20;1.70;;;7.90;99.90;;;;;;4952618;29;20807;-74
2021/10/22 17:42:18;;;;;;;8.53;1.73;;;7.90;99.90;;;;;;4942500;28;20251;-74
2021/10/22 17:44:43;;;;;;;2.60;1.60;;;8.00;99.90;;;;;;4949637;29;20223;-75
2021/10/22 17:47:09;;;;;;;4.47;2.00;;;8.00;99.90;;;;;;4954079;28;20476;-76
2021/10/22 17:49:35;;;;;;;5.63;1.80;;;8.00;99.90;;;;;;4956644;29;20218;-76
2021/10/22 17:52:00;;;;;;;5.80;1.83;;;8.00;99.90;;;;;;4954841;29;20221;-75
2021/10/22 17:54:26;;;;;;;2.93;1.50;;;8.00;99.90;;;;;;4954981;28;20304;-76
2021/10/22 17:56:52;;;;;;;5.50;2.13;;;8.10;99.90;;;;;;4956484;28;20590;-76
2021/10/22 17:59:17;;;;;;;5.00;2.10;;;8.20;99.90;;;;;;4956493;29;20751;-76
2021/10/22 18:01:44;;;;;;;8.00;2.10;;;8.30;99.90;;;;;;4956482;28;20223;-77
2021/10/22 18:04:09;;;;;;;13.03;1.40;;;8.30;99.90;;;;;;4955690;28;20296;-74